sensor_id;sensor_type;location;lat;lon;timestamp;pressure;altitude;pressure_sealevel;temperature;humidity
71565;BME280;59397;50.952;14.502;2024-02-26T00:17:07;959.61;;;-1.51;100.00
71565;BME280;59397;50.952;14.502;2024-02-26T00:36:39;959.54;;;-1.78;100.00
71565;BME280;59397;50.952;14.502;2024-02-26T00:56:12;959.38;;;-1.34;100.00
71565;BME280;59397;50.952;14.502;2024-02-26T01:15:44;959.40;;;-1.48;100.00
71565;BME280;59397;50.952;14.502;2024-02-26T01:35:15;959.24;;;-1.67;100.00
71565;BME280;59397;50.952;14.502;2024-02-26T01:54:48;959.11;;;-2.14;100.00
71565;BME280;59397;50.952;14.502;2024-02-26T02:14:22;958.85;;;-2.01;100.00
71565;BME280;59397;50.952;14.502;2024-02-26T02:33:55;958.78;;;-2.02;100.00
71565;BME280;59397;50.952;14.502;2024-02-26T02:53:27;958.79;;;-2.46;100.00
71565;BME280;59397;50.952;14.502;2024-02-26T03:13:02;958.74;;;-2.34;100.00
71565;BME280;59397;50.952;14.502;2024-02-26T03:32:36;958.75;;;-2.27;100.00
71565;BME280;59397;50.952;14.502;2024-02-26T03:52:09;958.79;;;-2.02;100.00
71565;BME280;59397;50.952;14.502;2024-02-26T04:11:41;959.10;;;-2.38;100.00
71565;BME280;59397;50.952;14.502;2024-02-26T04:31:17;959.10;;;-2.57;100.00
71565;BME280;59397;50.952;14.502;2024-02-26T04:50:51;959.06;;;-2.55;100.00
71565;BME280;59397;50.952;14.502;2024-02-26T05:10:23;959.07;;;-2.90;100.00
71565;BME280;59397;50.952;14.502;2024-02-26T05:29:59;959.10;;;-2.61;100.00
71565;BME280;59397;50.952;14.502;2024-02-26T05:49:32;959.32;;;-3.37;100.00
71565;BME280;59397;50.952;14.502;2024-02-26T06:09:08;959.39;;;-2.60;100.00
71565;BME280;59397;50.952;14.502;2024-02-26T06:28:43;959.52;;;-2.00;100.00
71565;BME280;59397;50.952;14.502;2024-02-26T06:48:18;959.60;;;-1.22;100.00
71565;BME280;59397;50.952;14.502;2024-02-26T07:07:53;959.53;;;-0.87;100.00
71565;BME280;59397;50.952;14.502;2024-02-26T07:27:29;959.52;;;0.56;100.00
71565;BME280;59397;50.952;14.502;2024-02-26T07:47:08;959.38;;;2.42;100.00
71565;BME280;59397;50.952;14.502;2024-02-26T08:06:51;959.39;;;4.37;100.00
71565;BME280;59397;50.952;14.502;2024-02-26T08:26:31;959.27;;;5.97;100.00
71565;BME280;59397;50.952;14.502;2024-02-26T08:46:08;959.38;;;6.60;100.00
71565;BME280;59397;50.952;14.502;2024-02-26T09:05:44;959.33;;;7.39;100.00
71565;BME280;59397;50.952;14.502;2024-02-26T09:25:21;959.16;;;8.20;99.55
71565;BME280;59397;50.952;14.502;2024-02-26T09:44:57;959.10;;;8.58;96.42
71565;BME280;59397;50.952;14.502;2024-02-26T10:04:32;959.19;;;9.17;92.46
71565;BME280;59397;50.952;14.502;2024-02-26T10:24:11;959.34;;;8.80;89.34
71565;BME280;59397;50.952;14.502;2024-02-26T10:43:43;959.41;;;9.71;86.01
71565;BME280;59397;50.952;14.502;2024-02-26T11:03:20;959.22;;;10.21;82.34
71565;BME280;59397;50.952;14.502;2024-02-26T11:22:56;959.33;;;10.27;79.68
71565;BME280;59397;50.952;14.502;2024-02-26T11:42:30;959.47;;;10.39;77.70
71565;BME280;59397;50.952;14.502;2024-02-26T12:02:07;959.46;;;11.19;73.06
71565;BME280;59397;50.952;14.502;2024-02-26T12:21:38;959.31;;;10.96;71.27
71565;BME280;59397;50.952;14.502;2024-02-26T12:41:11;959.56;;;10.89;74.14
71565;BME280;59397;50.952;14.502;2024-02-26T13:00:44;959.70;;;11.03;72.79
71565;BME280;59397;50.952;14.502;2024-02-26T13:39:55;959.72;;;10.74;74.89
71565;BME280;59397;50.952;14.502;2024-02-26T13:59:27;959.97;;;10.87;73.47
71565;BME280;59397;50.952;14.502;2024-02-26T14:19:01;959.97;;;10.73;73.13
71565;BME280;59397;50.952;14.502;2024-02-26T14:38:34;960.07;;;10.55;75.93
71565;BME280;59397;50.952;14.502;2024-02-26T14:58:06;960.11;;;10.27;79.30
71565;BME280;59397;50.952;14.502;2024-02-26T15:17:40;960.40;;;10.45;78.69
71565;BME280;59397;50.952;14.502;2024-02-26T15:37:12;960.65;;;10.13;78.30
71565;BME280;59397;50.952;14.502;2024-02-26T15:56:45;960.77;;;9.92;82.38
71565;BME280;59397;50.952;14.502;2024-02-26T16:16:19;961.01;;;8.27;93.05
71565;BME280;59397;50.952;14.502;2024-02-26T16:35:47;961.28;;;8.09;100.00
71565;BME280;59397;50.952;14.502;2024-02-26T16:55:23;961.58;;;8.26;99.55
71565;BME280;59397;50.952;14.502;2024-02-26T17:14:54;961.82;;;7.87;100.00
71565;BME280;59397;50.952;14.502;2024-02-26T17:34:25;962.10;;;6.79;100.00
71565;BME280;59397;50.952;14.502;2024-02-26T17:53:58;962.27;;;6.53;100.00
71565;BME280;59397;50.952;14.502;2024-02-26T18:13:31;962.17;;;6.00;100.00
71565;BME280;59397;50.952;14.502;2024-02-26T18:33:03;962.28;;;5.62;100.00
71565;BME280;59397;50.952;14.502;2024-02-26T18:52:34;962.51;;;4.46;100.00
71565;BME280;59397;50.952;14.502;2024-02-26T19:12:07;962.59;;;4.10;100.00
71565;BME280;59397;50.952;14.502;2024-02-26T19:31:38;962.77;;;3.20;100.00
71565;BME280;59397;50.952;14.502;2024-02-26T19:51:08;962.96;;;2.48;100.00
71565;BME280;59397;50.952;14.502;2024-02-26T20:10:42;963.10;;;2.52;100.00
71565;BME280;59397;50.952;14.502;2024-02-26T20:30:14;963.45;;;1.51;100.00
71565;BME280;59397;50.952;14.502;2024-02-26T20:49:46;963.72;;;0.68;100.00
71565;BME280;59397;50.952;14.502;2024-02-26T21:09:22;963.89;;;1.29;100.00
71565;BME280;59397;50.952;14.502;2024-02-26T21:28:54;964.03;;;0.71;100.00
71565;BME280;59397;50.952;14.502;2024-02-26T21:48:26;964.15;;;0.13;100.00
71565;BME280;59397;50.952;14.502;2024-02-26T22:07:57;964.29;;;-0.53;100.00
71565;BME280;59397;50.952;14.502;2024-02-26T22:27:32;964.46;;;-0.32;100.00
71565;BME280;59397;50.952;14.502;2024-02-26T22:47:06;964.54;;;-0.01;100.00
71565;BME280;59397;50.952;14.502;2024-02-26T23:06:41;964.52;;;0.62;100.00
71565;BME280;59397;50.952;14.502;2024-02-26T23:26:15;964.63;;;0.01;100.00
71565;BME280;59397;50.952;14.502;2024-02-26T23:45:48;964.83;;;0.81;100.00
